Time;durP1;ratioP1;P1;durP2;ratioP2;P2;SDS_P1;SDS_P2;PMS_P1;PMS_P2;Temp;Humidity;BMP_temperature;BMP_pressure;BME280_temperature;BME280_humidity;BME280_pressure;Samples;Min_cycle;Max_cycle;Signal;HPM_P1;HPM_P2
2023/03/20 00:00:17;;;;;;;28.17;16.30;;;;;;;;;;2055797;28;20030;-87
2023/03/20 00:01:28;;;;;;;30.70;17.02;;;;;;;;;;2055457;28;20106;-88
2023/03/20 00:02:29;;;;;;;33.88;16.52;;;;;;;;;;2055941;28;20027;-88
2023/03/20 00:03:29;;;;;;;;;;;;;;;;;;2055579;28;20430;-88
2023/03/20 00:04:31;;;;;;;33.85;16.95;;;;;;;;;;2047030;29;20026;-88
2023/03/20 00:05:32;;;;;;;30.77;16.05;;;;;;;;;;2047286;28;20027;-88
2023/03/20 00:06:32;;;;;;;;;;;;;;;;;;2047759;29;20677;-88
2023/03/20 00:07:32;;;;;;;30.40;16.33;;;;;;;;;;2039510;29;19915;-87
2023/03/20 00:08:33;;;;;;;;;;;;;;;;;;2039502;29;20035;-86
2023/03/20 00:09:33;;;;;;;30.00;15.50;;;;;;;;;;2047044;29;19962;-89
2023/03/20 00:10:37;;;;;;;25.40;14.98;;;;;;;;;;2047227;29;20035;-87
2023/03/20 00:11:47;;;;;;;29.40;16.40;;;;;;;;;;1694748;28;10325529;-87
2023/03/20 00:12:49;;;;;;;32.03;17.90;;;;;;;;;;2056039;28;20038;-87
2023/03/20 00:13:50;;;;;;;28.77;16.52;;;;;;;;;;2055991;28;20023;-88
2023/03/20 00:14:51;;;;;;;28.13;16.63;;;;;;;;;;2055816;28;20073;-87
2023/03/20 00:15:51;;;;;;;;;;;;;;;;;;2047653;29;20102;-87
2023/03/20 00:16:51;;;;;;;28.67;16.93;;;;;;;;;;2047143;29;20534;-87
2023/03/20 00:17:52;;;;;;;;;;;;;;;;;;2057829;28;20103;-89
2023/03/20 00:18:55;;;;;;;33.30;19.00;;;;;;;;;;2060249;28;19910;-87
2023/03/20 00:19:55;;;;;;;32.00;17.25;;;;;;;;;;2051327;29;20027;-86
2023/03/20 00:20:55;;;;;;;;;;;;;;;;;;2040312;29;20034;-87
2023/03/20 00:21:56;;;;;;;34.20;19.88;;;;;;;;;;2039522;29;19971;-89
2023/03/20 00:22:56;;;;;;;33.40;20.40;;;;;;;;;;2039591;29;20032;-86
2023/03/20 00:23:57;;;;;;;;;;;;;;;;;;2039972;29;20032;-88
2023/03/20 00:24:57;;;;;;;33.70;18.73;;;;;;;;;;2039516;29;19922;-87
2023/03/20 00:25:57;;;;;;;;;;;;;;;;;;2039819;29;20110;-87
2023/03/20 00:26:58;;;;;;;32.97;18.27;;;;;;;;;;2047506;29;20499;-87
2023/03/20 00:27:58;;;;;;;;;;;;;;;;;;2056316;28;20026;-87
2023/03/20 00:28:59;;;;;;;37.00;19.83;;;;;;;;;;2056016;28;20008;-86
2023/03/20 00:30:00;;;;;;;32.78;19.55;;;;;;;;;;2055769;28;20459;-87
2023/03/20 00:31:01;;;;;;;;;;;;;;;;;;2047802;29;20023;-87
2023/03/20 00:32:01;;;;;;;32.10;18.15;;;;;;;;;;2047213;29;19910;-87
2023/03/20 00:33:02;;;;;;;;;;;;;;;;;;2047817;29;20106;-86
2023/03/20 00:34:13;;;;;;;27.35;16.55;;;;;;;;;;2056110;28;20300;-87
2023/03/20 00:35:21;;;;;;;32.83;18.13;;;;;;;;;;2055800;28;20054;-87
2023/03/20 00:36:23;;;;;;;33.60;18.75;;;;;;;;;;2055942;28;20038;-87
2023/03/20 00:37:23;;;;;;;35.65;19.67;;;;;;;;;;2057276;28;20023;-87
2023/03/20 00:38:24;;;;;;;;;;;;;;;;;;2061940;28;20149;-86
2023/03/20 00:39:25;;;;;;;41.03;20.73;;;;;;;;;;2046896;29;20024;-86
2023/03/20 00:40:27;;;;;;;;;;;;;;;;;;2047344;29;20232;-85
2023/03/20 00:41:43;;;;;;;31.58;18.77;;;;;;;;;;2046679;29;19922;-88
2023/03/20 00:42:49;;;;;;;38.85;20.48;;;;;;;;;;2046575;29;20110;-87
2023/03/20 00:43:52;;;;;;;37.08;19.58;;;;;;;;;;2047528;28;20106;-87
2023/03/20 00:44:54;;;;;;;36.13;19.70;;;;;;;;;;2046785;29;20035;-87
2023/03/20 00:45:55;;;;;;;36.25;19.33;;;;;;;;;;2047029;28;20395;-87
2023/03/20 00:46:57;;;;;;;;;;;;;;;;;;2047155;29;20126;-85
2023/03/20 00:47:58;;;;;;;34.38;18.67;;;;;;;;;;2046862;28;20014;-86
2023/03/20 00:48:58;;;;;;;;;;;;;;;;;;2055865;28;20031;-86
2023/03/20 00:49:59;;;;;;;33.60;18.50;;;;;;;;;;2055357;28;19936;-86
2023/03/20 00:50:59;;;;;;;38.23;19.37;;;;;;;;;;1864453;29;5091124;-86
2023/03/20 00:52:00;;;;;;;;;;;;;;;;;;2031422;29;20823;-86
2023/03/20 00:53:01;;;;;;;39.30;17.92;;;;;;;;;;2045863;28;19950;-87
2023/03/20 00:54:05;;;;;;;34.95;17.65;;;;;;;;;;2047866;28;20046;-88
2023/03/20 00:55:05;;;;;;;35.10;17.70;;;;;;;;;;2047054;28;20020;-88
2023/03/20 00:56:06;;;;;;;;;;;;;;;;;;2047244;29;20513;-87
2023/03/20 00:57:27;;;;;;;31.43;17.33;;;;;;;;;;2046570;29;19915;-86
2023/03/20 00:58:27;;;;;;;27.50;15.93;;;;;;;;;;2054939;28;20157;-86
2023/03/20 00:59:32;;;;;;;;;;;;;;;;;;2055550;28;20053;-87
2023/03/20 01:00:37;;;;;;;28.73;14.65;;;;;;;;;;2055478;28;20056;-87
2023/03/20 01:01:37;;;;;;;24.75;13.75;;;;;;;;;;2046386;29;20054;-87
2023/03/20 01:02:38;;;;;;;;;;;;;;;;;;2047535;28;20026;-85
2023/03/20 01:03:39;;;;;;;24.40;13.80;;;;;;;;;;2055285;28;19910;-87
2023/03/20 01:04:41;;;;;;;;;;;;;;;;;;2055689;28;20034;-85
2023/03/20 01:05:42;;;;;;;24.90;12.80;;;;;;;;;;2046429;29;19911;-85
2023/03/20 01:06:43;;;;;;;20.13;12.63;;;;;;;;;;2046786;28;20110;-86
2023/03/20 01:07:44;;;;;;;21.77;12.18;;;;;;;;;;2046681;29;20054;-87
2023/03/20 01:08:45;;;;;;;20.13;12.60;;;;;;;;;;2046452;29;20035;-86
2023/03/20 01:09:46;;;;;;;;;;;;;;;;;;2038986;29;20041;-87
2023/03/20 01:10:49;;;;;;;19.23;12.20;;;;;;;;;;2046615;28;20613;-85
2023/03/20 01:11:50;;;;;;;21.95;12.25;;;;;;;;;;2055352;28;20023;-87
2023/03/20 01:12:50;;;;;;;;;;;;;;;;;;2058394;28;20031;-86
2023/03/20 01:13:51;;;;;;;22.17;12.60;;;;;;;;;;2049819;29;19933;-86
2023/03/20 01:14:55;;;;;;;20.50;12.50;;;;;;;;;;2047700;29;20407;-87
2023/03/20 01:15:56;;;;;;;28.25;14.35;;;;;;;;;;2055388;28;20019;-86
2023/03/20 01:16:57;;;;;;;23.38;13.63;;;;;;;;;;2046748;29;20023;-87
2023/03/20 01:17:57;;;;;;;;;;;;;;;;;;2047183;29;20019;-87
2023/03/20 01:18:57;;;;;;;25.52;14.57;;;;;;;;;;2055449;28;19916;-87
2023/03/20 01:19:58;;;;;;;29.83;14.98;;;;;;;;;;2046933;29;20118;-87
2023/03/20 01:20:58;;;;;;;30.27;14.98;;;;;;;;;;2046845;29;20106;-86
2023/03/20 01:21:58;;;;;;;;;;;;;;;;;;2055780;28;20030;-87
2023/03/20 01:22:59;;;;;;;31.63;15.90;;;;;;;;;;2046666;29;20000;-87
2023/03/20 01:23:59;;;;;;;28.70;15.90;;;;;;;;;;1700992;29;10123013;-87
2023/03/20 01:25:01;;;;;;;35.47;17.25;;;;;;;;;;2055266;28;20023;-86
2023/03/20 01:26:01;;;;;;;34.38;16.15;;;;;;;;;;2046698;29;20104;-88
2023/03/20 01:27:04;;;;;;;;;;;;;;;;;;2047499;29;20426;-87
2023/03/20 01:28:14;;;;;;;32.55;16.40;;;;;;;;;;2046606;29;19918;-88
2023/03/20 01:29:23;;;;;;;34.45;17.75;;;;;;;;;;2039844;29;20040;-86
2023/03/20 01:30:27;;;;;;;29.83;17.33;;;;;;;;;;2047676;29;20435;-87
2023/03/20 01:31:28;;;;;;;33.65;17.60;;;;;;;;;;2039291;29;20016;-88
2023/03/20 01:32:28;;;;;;;;;;;;;;;;;;2046935;29;20117;-87
2023/03/20 01:33:29;;;;;;;36.42;16.60;;;;;;;;;;2055452;28;19917;-88
2023/03/20 01:34:30;;;;;;;36.47;17.50;;;;;;;;;;2055454;28;20040;-87
2023/03/20 01:35:30;;;;;;;;;;;;;;;;;;2046873;29;20040;-87
2023/03/20 01:36:31;;;;;;;32.87;15.70;;;;;;;;;;2038641;29;20252;-88
2023/03/20 01:37:32;;;;;;;;;;;;;;;;;;2046994;29;20023;-87
2023/03/20 01:38:32;;;;;;;31.40;15.40;;;;;;;;;;2046526;29;19979;-88
2023/03/20 01:39:33;;;;;;;;;;;;;;;;;;2047197;29;20019;-88
2023/03/20 01:40:46;;;;;;;27.77;14.77;;;;;;;;;;2055215;28;20325;-87
2023/03/20 01:41:47;;;;;;;29.05;15.55;;;;;;;;;;2046318;28;20087;-88
2023/03/20 01:42:48;;;;;;;25.60;14.80;;;;;;;;;;2038549;29;20440;-87
2023/03/20 01:43:48;;;;;;;;;;;;;;;;;;2046773;29;20023;-87
2023/03/20 01:44:49;;;;;;;26.67;14.00;;;;;;;;;;2055046;28;19910;-86
2023/03/20 01:45:57;;;;;;;23.75;13.63;;;;;;;;;;2046501;29;20027;-86
2023/03/20 01:47:00;;;;;;;21.33;13.45;;;;;;;;;;2039575;29;20168;-86
2023/03/20 01:48:17;;;;;;;26.02;14.30;;;;;;;;;;2038775;29;20511;-86
2023/03/20 01:49:18;;;;;;;23.77;13.65;;;;;;;;;;2046259;29;20466;-87
2023/03/20 01:50:22;;;;;;;;;;;;;;;;;;2047153;29;20023;-86
2023/03/20 01:51:25;;;;;;;19.65;12.70;;;;;;;;;;2046315;29;20008;-86
2023/03/20 01:52:26;;;;;;;24.38;12.90;;;;;;;;;;2038805;29;20031;-86
2023/03/20 01:53:28;;;;;;;21.27;12.45;;;;;;;;;;2038783;29;20036;-86
2023/03/20 01:54:34;;;;;;;20.98;12.23;;;;;;;;;;2038714;29;20024;-86
2023/03/20 01:55:37;;;;;;;20.20;12.07;;;;;;;;;;2038852;29;20388;-86
2023/03/20 01:56:45;;;;;;;18.75;11.93;;;;;;;;;;2038420;29;20441;-86
2023/03/20 01:57:46;;;;;;;16.63;11.52;;;;;;;;;;2045989;29;20118;-86
2023/03/20 01:58:50;;;;;;;;;;;;;;;;;;2038693;29;20660;-86
2023/03/20 01:59:54;;;;;;;21.17;11.48;;;;;;;;;;2046432;28;19914;-86
2023/03/20 02:00:55;;;;;;;21.67;12.15;;;;;;;;;;2053988;28;20023;-87
2023/03/20 02:01:55;;;;;;;;;;;;;;;;;;2054988;28;20157;-88
2023/03/20 02:02:56;;;;;;;20.77;12.00;;;;;;;;;;2054124;29;19969;-87
2023/03/20 02:03:56;;;;;;;20.40;11.85;;;;;;;;;;2057014;28;20035;-87
2023/03/20 02:04:59;;;;;;;;;;;;;;;;;;2061919;28;20030;-87
2023/03/20 02:06:00;;;;;;;18.40;11.55;;;;;;;;;;2059917;28;19928;-85
2023/03/20 02:07:01;;;;;;;;;;;;;;;;;;2049677;29;20122;-87
2023/03/20 02:08:24;;;;;;;21.83;11.90;;;;;;;;;;2046499;28;19998;-87
2023/03/20 02:09:25;;;;;;;22.52;12.27;;;;;;;;;;2054809;28;20340;-88
2023/03/20 02:10:25;;;;;;;20.83;12.60;;;;;;;;;;1703066;29;10043114;-88
2023/03/20 02:11:25;;;;;;;;;;;;;;;;;;2046545;29;20286;-88
2023/03/20 02:12:26;;;;;;;16.27;10.93;;;;;;;;;;2046164;29;19961;-88
2023/03/20 02:13:28;;;;;;;;;;;;;;;;;;2046620;29;20605;-89
2023/03/20 02:14:30;;;;;;;20.60;10.48;;;;;;;;;;2054749;28;19916;-87
2023/03/20 02:15:31;;;;;;;24.23;12.20;;;;;;;;;;2053940;28;20042;-87
2023/03/20 02:16:31;;;;;;;;;;;;;;;;;;2046441;29;20482;-86
2023/03/20 02:17:32;;;;;;;22.53;12.27;;;;;;;;;;2038954;29;20413;-87
2023/03/20 02:18:33;;;;;;;20.92;12.23;;;;;;;;;;2045590;28;20142;-87
2023/03/20 02:19:44;;;;;;;;;;;;;;;;;;2055264;28;20035;-87
2023/03/20 02:20:53;;;;;;;21.42;11.60;;;;;;;;;;2045964;29;20005;-88
2023/03/20 02:22:26;;;;;;;19.45;11.98;;;;;;;;;;2040500;29;20118;-89
2023/03/20 02:23:52;;;;;;;17.45;10.80;;;;;;;;;;2055859;28;20043;-89
2023/03/20 02:25:31;;;;;;;18.00;11.20;;;;;;;;;;2056736;28;20089;-89
2023/03/20 02:26:55;;;;;;;19.75;10.77;;;;;;;;;;2046856;29;20035;-88
2023/03/20 02:28:14;;;;;;;20.50;11.52;;;;;;;;;;2050621;28;20038;-88
2023/03/20 02:29:30;;;;;;;20.17;13.10;;;;;;;;;;2046342;29;20066;-88
2023/03/20 02:30:49;;;;;;;18.73;11.63;;;;;;;;;;2040333;29;20043;-88
2023/03/20 02:31:59;;;;;;;17.85;11.10;;;;;;;;;;2048852;28;20033;-87
2023/03/20 02:33:53;;;;;;;17.15;11.73;;;;;;;;;;2046220;29;20038;-88
2023/03/20 02:35:13;;;;;;;18.17;11.10;;;;;;;;;;2023494;28;20048;-88
2023/03/20 02:36:27;;;;;;;22.10;11.90;;;;;;;;;;2054262;28;20217;-88
2023/03/20 02:37:46;;;;;;;17.98;11.93;;;;;;;;;;2046106;29;20036;-88
2023/03/20 02:38:59;;;;;;;16.30;10.45;;;;;;;;;;2046261;29;20035;-88
2023/03/20 02:40:15;;;;;;;16.73;9.80;;;;;;;;;;2039726;29;20043;-88
2023/03/20 02:41:29;;;;;;;16.90;11.30;;;;;;;;;;2047826;28;20027;-88
2023/03/20 02:42:43;;;;;;;16.95;11.27;;;;;;;;;;2046855;29;20039;-88
2023/03/20 02:44:01;;;;;;;16.85;11.63;;;;;;;;;;2039923;29;20027;-87
2023/03/20 02:45:08;;;;;;;19.17;12.05;;;;;;;;;;2046057;29;20426;-87
2023/03/20 02:46:35;;;;;;;19.35;12.23;;;;;;;;;;2046930;28;20132;-88
2023/03/20 02:48:07;;;;;;;18.88;12.07;;;;;;;;;;2045830;29;20072;-87
2023/03/20 02:49:08;;;;;;;20.23;11.30;;;;;;;;;;2030234;28;20795;-88
2023/03/20 02:50:08;;;;;;;;;;;;;;;;;;2046349;29;20027;-87
2023/03/20 02:51:18;;;;;;;16.88;11.43;;;;;;;;;;2038088;29;19929;-89
2023/03/20 02:52:22;;;;;;;20.08;11.45;;;;;;;;;;2045887;29;20038;-88
2023/03/20 02:53:51;;;;;;;18.42;12.07;;;;;;;;;;2046471;28;20521;-88
2023/03/20 02:55:00;;;;;;;18.08;12.07;;;;;;;;;;2045796;29;20054;-87
2023/03/20 02:56:38;;;;;;;19.42;10.93;;;;;;;;;;2039400;29;20027;-88
2023/03/20 02:58:08;;;;;;;18.20;11.23;;;;;;;;;;2043464;29;20035;-88
2023/03/20 02:59:19;;;;;;;18.08;10.85;;;;;;;;;;2029577;29;20535;-87
2023/03/20 03:00:29;;;;;;;18.50;10.88;;;;;;;;;;2053207;28;20050;-85
2023/03/20 03:01:34;;;;;;;19.42;11.43;;;;;;;;;;2055010;28;20033;-87
2023/03/20 03:02:38;;;;;;;17.08;10.98;;;;;;;;;;2046306;29;20031;-88
2023/03/20 03:04:01;;;;;;;17.73;11.95;;;;;;;;;;2038730;29;20115;-87
2023/03/20 03:05:07;;;;;;;19.92;11.25;;;;;;;;;;2049116;28;20026;-87
2023/03/20 03:06:21;;;;;;;19.10;11.32;;;;;;;;;;2046126;29;20170;-88
2023/03/20 03:07:26;;;;;;;19.92;12.57;;;;;;;;;;2040073;29;20043;-88
2023/03/20 03:08:32;;;;;;;17.63;11.23;;;;;;;;;;2046602;28;20020;-88
2023/03/20 03:09:50;;;;;;;19.55;11.65;;;;;;;;;;2057519;28;20027;-88
2023/03/20 03:11:06;;;;;;;19.08;13.35;;;;;;;;;;2055308;28;20089;-87
2023/03/20 03:12:16;;;;;;;21.33;12.43;;;;;;;;;;2054153;28;20054;-87
2023/03/20 03:13:21;;;;;;;19.00;12.15;;;;;;;;;;2054338;28;20061;-88
2023/03/20 03:14:46;;;;;;;20.23;12.45;;;;;;;;;;2055035;28;20045;-87
2023/03/20 03:15:51;;;;;;;16.35;11.00;;;;;;;;;;2054382;28;20514;-87
2023/03/20 03:16:53;;;;;;;20.58;12.55;;;;;;;;;;2053845;28;20023;-87
2023/03/20 03:17:57;;;;;;;20.67;13.20;;;;;;;;;;2046005;29;20134;-88
2023/03/20 03:19:08;;;;;;;16.80;11.45;;;;;;;;;;2038285;29;20028;-87
2023/03/20 03:20:25;;;;;;;21.67;12.77;;;;;;;;;;2047541;28;20020;-88
2023/03/20 03:21:29;;;;;;;23.25;12.90;;;;;;;;;;2045687;29;20032;-88
2023/03/20 03:22:30;;;;;;;21.67;12.48;;;;;;;;;;2046577;28;20087;-88
2023/03/20 03:23:42;;;;;;;22.20;14.00;;;;;;;;;;2053800;28;20027;-88
2023/03/20 03:24:47;;;;;;;21.30;12.38;;;;;;;;;;2046087;29;20106;-88
2023/03/20 03:25:50;;;;;;;20.83;13.73;;;;;;;;;;2038563;29;20027;-88
2023/03/20 03:26:52;;;;;;;21.92;13.30;;;;;;;;;;1695883;29;10245463;-87
2023/03/20 03:28:03;;;;;;;21.75;13.25;;;;;;;;;;2038151;29;20023;-88
2023/03/20 03:29:14;;;;;;;22.38;13.50;;;;;;;;;;2047422;28;20027;-87
2023/03/20 03:30:23;;;;;;;23.75;13.55;;;;;;;;;;2054767;28;20473;-87
2023/03/20 03:31:23;;;;;;;25.85;14.43;;;;;;;;;;2055936;28;20045;-87
2023/03/20 03:32:26;;;;;;;;;;;;;;;;;;2056440;28;20544;-88
2023/03/20 03:33:29;;;;;;;23.15;13.68;;;;;;;;;;2055886;28;19977;-88
2023/03/20 03:34:32;;;;;;;22.98;13.63;;;;;;;;;;2047230;29;20019;-87
2023/03/20 03:35:32;;;;;;;28.88;15.77;;;;;;;;;;2039435;29;20098;-87
2023/03/20 03:36:47;;;;;;;;;;;;;;;;;;2047760;29;20082;-87
2023/03/20 03:38:02;;;;;;;21.15;12.20;;;;;;;;;;2041162;29;19998;-88
2023/03/20 03:39:31;;;;;;;25.00;13.85;;;;;;;;;;2049174;28;20415;-88
2023/03/20 03:40:45;;;;;;;24.73;14.27;;;;;;;;;;2055933;28;20537;-87
2023/03/20 03:41:52;;;;;;;27.00;14.15;;;;;;;;;;2055730;28;20035;-87
2023/03/20 03:43:19;;;;;;;22.85;13.93;;;;;;;;;;2047389;29;20051;-88
2023/03/20 03:44:27;;;;;;;23.33;13.85;;;;;;;;;;2045727;28;20272;-87
2023/03/20 03:45:35;;;;;;;28.05;15.60;;;;;;;;;;2056156;28;20029;-86
2023/03/20 03:46:47;;;;;;;27.10;15.40;;;;;;;;;;2047055;29;20042;-88
2023/03/20 03:47:59;;;;;;;24.02;13.98;;;;;;;;;;2040750;29;20028;-87
2023/03/20 03:49:01;;;;;;;22.23;13.82;;;;;;;;;;2048795;28;20042;-88
2023/03/20 03:50:12;;;;;;;27.23;14.27;;;;;;;;;;2055899;28;20126;-88
2023/03/20 03:51:17;;;;;;;26.75;13.98;;;;;;;;;;2055942;28;20026;-89
2023/03/20 03:52:22;;;;;;;28.60;14.15;;;;;;;;;;2056260;28;20018;-88
2023/03/20 03:53:34;;;;;;;25.73;15.00;;;;;;;;;;2056726;28;20035;-88
2023/03/20 03:54:44;;;;;;;26.15;14.27;;;;;;;;;;2059828;28;20034;-88
2023/03/20 03:55:52;;;;;;;27.05;13.93;;;;;;;;;;2056358;28;20030;-87
2023/03/20 03:56:55;;;;;;;28.63;14.50;;;;;;;;;;2055197;28;20117;-88
2023/03/20 03:57:59;;;;;;;32.08;15.35;;;;;;;;;;2055839;28;20026;-87
2023/03/20 03:59:12;;;;;;;29.13;16.27;;;;;;;;;;2047450;29;20023;-87
2023/03/20 04:00:18;;;;;;;26.77;14.75;;;;;;;;;;2049118;28;20545;-88
2023/03/20 04:01:20;;;;;;;32.88;14.85;;;;;;;;;;2056410;28;20022;-87
2023/03/20 04:02:21;;;;;;;29.13;16.70;;;;;;;;;;2055244;28;20035;-87
2023/03/20 04:03:28;;;;;;;30.73;15.05;;;;;;;;;;2047441;29;20058;-87
2023/03/20 04:04:30;;;;;;;27.45;14.05;;;;;;;;;;2040306;29;20453;-88
2023/03/20 04:05:35;;;;;;;27.98;16.42;;;;;;;;;;2039436;29;20118;-87
2023/03/20 04:06:36;;;;;;;24.70;12.73;;;;;;;;;;2048372;28;20046;-86
2023/03/20 04:07:36;;;;;;;;;;;;;;;;;;2056505;28;20118;-87
2023/03/20 04:08:39;;;;;;;20.20;11.07;;;;;;;;;;2055955;28;19945;-87
2023/03/20 04:09:40;;;;;;;21.92;12.98;;;;;;;;;;2047161;29;20110;-87
2023/03/20 04:10:40;;;;;;;;;;;;;;;;;;1704075;29;10002909;-87
2023/03/20 04:11:40;;;;;;;20.83;10.97;;;;;;;;;;2047167;29;19914;-87
2023/03/20 04:12:42;;;;;;;;;;;;;;;;;;2056166;28;20115;-86
2023/03/20 04:13:48;;;;;;;17.58;9.80;;;;;;;;;;2047303;29;19958;-86
2023/03/20 04:14:48;;;;;;;16.08;10.25;;;;;;;;;;2039598;29;20589;-88
2023/03/20 04:15:48;;;;;;;;;;;;;;;;;;2039677;29;20338;-87
2023/03/20 04:16:49;;;;;;;20.38;10.18;;;;;;;;;;2047340;29;20389;-87
2023/03/20 04:17:49;;;;;;;19.33;12.40;;;;;;;;;;2046835;29;20130;-88
2023/03/20 04:18:50;;;;;;;22.50;14.00;;;;;;;;;;2047160;29;20104;-87
2023/03/20 04:19:50;;;;;;;;;;;;;;;;;;2047517;29;20031;-85
2023/03/20 04:20:51;;;;;;;22.93;10.97;;;;;;;;;;2047464;29;20293;-87
2023/03/20 04:21:51;;;;;;;;;;;;;;;;;;2056315;28;20041;-85
2023/03/20 04:22:51;;;;;;;15.80;9.60;;;;;;;;;;2055918;28;19989;-86
2023/03/20 04:23:52;;;;;;;;;;;;;;;;;;2056500;28;20101;-87
2023/03/20 04:24:52;;;;;;;21.40;9.83;;;;;;;;;;2047148;29;20335;-86
2023/03/20 04:25:52;;;;;;;;;;;;;;;;;;2047546;29;20054;-87
2023/03/20 04:26:53;;;;;;;15.03;9.63;;;;;;;;;;2055858;28;19917;-88
2023/03/20 04:27:54;;;;;;;;;;;;;;;;;;2047571;29;20187;-87
2023/03/20 04:28:54;;;;;;;15.70;10.25;;;;;;;;;;2047181;29;19910;-87
2023/03/20 04:29:55;;;;;;;20.15;10.00;;;;;;;;;;2046933;29;20538;-87
2023/03/20 04:30:57;;;;;;;;;;;;;;;;;;2047507;29;20023;-88
2023/03/20 04:31:58;;;;;;;15.38;9.02;;;;;;;;;;2038888;29;19915;-87
2023/03/20 04:32:59;;;;;;;15.60;11.05;;;;;;;;;;2047210;28;20033;-87
2023/03/20 04:33:59;;;;;;;;;;;;;;;;;;2047679;29;20027;-87
2023/03/20 04:34:59;;;;;;;13.90;9.50;;;;;;;;;;2040730;29;19911;-87
2023/03/20 04:36:00;;;;;;;;;;;;;;;;;;2039636;29;20191;-86
2023/03/20 04:37:01;;;;;;;13.00;8.60;;;;;;;;;;2046902;29;19968;-87
2023/03/20 04:38:03;;;;;;;16.27;10.13;;;;;;;;;;1696783;29;10245792;-86
2023/03/20 04:39:03;;;;;;;20.27;12.15;;;;;;;;;;2047170;28;20131;-86
2023/03/20 04:40:04;;;;;;;;;;;;;;;;;;2055859;28;20606;-85
2023/03/20 04:41:04;;;;;;;13.98;8.70;;;;;;;;;;2054985;28;19937;-85
2023/03/20 04:42:05;;;;;;;14.90;10.40;;;;;;;;;;2046753;29;20050;-86
2023/03/20 04:43:05;;;;;;;;;;;;;;;;;;2047175;29;20026;-84
2023/03/20 04:44:06;;;;;;;17.60;11.07;;;;;;;;;;2055446;28;19914;-85
2023/03/20 04:45:07;;;;;;;20.42;12.32;;;;;;;;;;2055308;28;20023;-86
2023/03/20 04:46:07;;;;;;;18.50;11.57;;;;;;;;;;2046674;29;20073;-85
2023/03/20 04:47:08;;;;;;;;;;;;;;;;;;2045809;29;20015;-85
2023/03/20 04:48:09;;;;;;;14.73;10.45;;;;;;;;;;2057308;28;20013;-85
2023/03/20 04:49:09;;;;;;;;;;;;;;;;;;2057185;28;20015;-84
2023/03/20 04:50:12;;;;;;;9.97;6.63;;;;;;;;;;2045718;28;19929;-86
2023/03/20 04:51:14;;;;;;;17.50;9.82;;;;;;;;;;2041632;29;20542;-85
2023/03/20 04:52:15;;;;;;;20.77;11.32;;;;;;;;;;2048416;28;20478;-87
2023/03/20 04:53:16;;;;;;;;;;;;;;;;;;2048939;29;20190;-85
2023/03/20 04:54:16;;;;;;;16.60;10.30;;;;;;;;;;2047676;28;20409;-87
2023/03/20 04:55:16;;;;;;;;;;;;;;;;;;2056138;28;20514;-86
2023/03/20 04:56:17;;;;;;;15.30;8.57;;;;;;;;;;2047274;29;19928;-86
2023/03/20 04:57:17;;;;;;;;;;;;;;;;;;2047494;29;20051;-86
2023/03/20 04:58:18;;;;;;;13.63;8.90;;;;;;;;;;2055846;28;19910;-86
2023/03/20 04:59:19;;;;;;;18.83;12.25;;;;;;;;;;2055624;28;20026;-87
2023/03/20 05:00:20;;;;;;;;;;;;;;;;;;2047508;29;20106;-86
2023/03/20 05:01:22;;;;;;;13.80;9.80;;;;;;;;;;2047040;28;19916;-86
2023/03/20 05:02:22;;;;;;;13.80;10.30;;;;;;;;;;2047111;29;20414;-86
2023/03/20 05:03:22;;;;;;;;;;;;;;;;;;2039667;29;20059;-85
2023/03/20 05:04:23;;;;;;;12.05;9.27;;;;;;;;;;2046943;29;19922;-86
2023/03/20 05:05:24;;;;;;;18.95;11.43;;;;;;;;;;2046867;29;20154;-87
2023/03/20 05:06:24;;;;;;;;;;;;;;;;;;2039146;29;20027;-87
2023/03/20 05:07:24;;;;;;;22.33;15.17;;;;;;;;;;2050152;29;19933;-86
2023/03/20 05:08:26;;;;;;;;;;;;;;;;;;2057631;28;20032;-87
2023/03/20 05:09:26;;;;;;;26.88;15.35;;;;;;;;;;2049113;28;20026;-87
2023/03/20 05:10:26;;;;;;;;;;;;;;;;;;2048318;28;20032;-87
2023/03/20 05:11:27;;;;;;;18.37;11.57;;;;;;;;;;2048418;29;19937;-89
2023/03/20 05:12:27;;;;;;;;;;;;;;;;;;2047705;29;20105;-87
2023/03/20 05:13:28;;;;;;;19.50;13.47;;;;;;;;;;2039149;29;19910;-86
2023/03/20 05:14:28;;;;;;;;;;;;;;;;;;2047485;29;20576;-85
2023/03/20 05:15:28;;;;;;;24.83;14.35;;;;;;;;;;2055366;28;19988;-87
2023/03/20 05:16:29;;;;;;;23.17;15.95;;;;;;;;;;2055264;28;20029;-87
2023/03/20 05:17:29;;;;;;;;;;;;;;;;;;2055861;28;20342;-87
2023/03/20 05:18:30;;;;;;;24.35;13.35;;;;;;;;;;2055146;28;19972;-86
2023/03/20 05:19:30;;;;;;;;;;;;;;;;;;2055861;28;20019;-85
2023/03/20 05:20:31;;;;;;;22.23;12.80;;;;;;;;;;2046781;29;20460;-85
2023/03/20 05:21:31;;;;;;;22.92;15.07;;;;;;;;;;2046588;29;20053;-86
2023/03/20 05:22:32;;;;;;;;;;;;;;;;;;2055877;28;20038;-86
2023/03/20 05:23:32;;;;;;;24.90;14.97;;;;;;;;;;2055328;28;19929;-86
2023/03/20 05:24:32;;;;;;;;;;;;;;;;;;2047130;29;20054;-85
2023/03/20 05:25:33;;;;;;;24.48;14.13;;;;;;;;;;2046561;29;19910;-86
2023/03/20 05:26:33;;;;;;;27.77;16.10;;;;;;;;;;2055254;28;20030;-86
2023/03/20 05:27:33;;;;;;;25.05;16.42;;;;;;;;;;2055512;28;20573;-86
2023/03/20 05:28:34;;;;;;;;;;;;;;;;;;2055803;28;20121;-86
2023/03/20 05:29:34;;;;;;;24.65;14.90;;;;;;;;;;2055370;28;20061;-87
2023/03/20 05:30:35;;;;;;;19.75;12.60;;;;;;;;;;1708687;28;10100148;-87
2023/03/20 05:31:35;;;;;;;;;;;;;;;;;;2047006;28;20171;-86
2023/03/20 05:32:36;;;;;;;20.93;12.30;;;;;;;;;;2038587;29;20082;-86
2023/03/20 05:33:36;;;;;;;;;;;;;;;;;;2046729;29;20042;-87
2023/03/20 05:34:36;;;;;;;22.25;13.75;;;;;;;;;;2038673;29;20009;-88
2023/03/20 05:35:37;;;;;;;;;;;;;;;;;;2038968;29;20043;-87
2023/03/20 05:36:37;;;;;;;23.63;13.55;;;;;;;;;;1696367;29;10048831;-87
2023/03/20 05:37:37;;;;;;;;;;;;;;;;;;2047047;29;20086;-86
2023/03/20 05:38:38;;;;;;;24.67;14.07;;;;;;;;;;2046259;29;19910;-87
2023/03/20 05:39:38;;;;;;;;;;;;;;;;;;2039329;29;20155;-87
2023/03/20 05:40:40;;;;;;;60.80;28.80;;;;;;;;;;2048648;29;20032;-84
2023/03/20 05:41:41;;;;;;;37.72;21.48;;;;;;;;;;2050767;29;20315;-87
2023/03/20 05:42:41;;;;;;;;;;;;;;;;;;2039606;29;20035;-87
2023/03/20 05:43:41;;;;;;;24.70;13.83;;;;;;;;;;2046862;29;19911;-87
2023/03/20 05:44:42;;;;;;;20.20;14.00;;;;;;;;;;2046733;29;20197;-87
2023/03/20 05:45:42;;;;;;;24.25;14.95;;;;;;;;;;2039188;29;20059;-87
2023/03/20 05:46:42;;;;;;;;;;;;;;;;;;2047917;29;20042;-87
2023/03/20 05:47:43;;;;;;;27.07;15.20;;;;;;;;;;2046718;29;19949;-87
2023/03/20 05:48:43;;;;;;;27.38;16.90;;;;;;;;;;2039151;29;20172;-88
2023/03/20 05:49:44;;;;;;;;;;;;;;;;;;2047101;29;20110;-87
2023/03/20 05:50:44;;;;;;;26.73;15.55;;;;;;;;;;2047006;29;19910;-86
2023/03/20 05:51:44;;;;;;;;;;;;;;;;;;2047649;29;20047;-86
2023/03/20 05:52:47;;;;;;;29.40;15.80;;;;;;;;;;2039170;29;19930;-86
2023/03/20 05:53:47;;;;;;;31.92;17.73;;;;;;;;;;2038657;29;20415;-88
2023/03/20 05:54:48;;;;;;;;;;;;;;;;;;2047366;29;20171;-87
2023/03/20 05:55:50;;;;;;;33.23;19.03;;;;;;;;;;2046372;29;19910;-87
2023/03/20 05:57:06;;;;;;;32.63;19.77;;;;;;;;;;2046267;29;20034;-87
2023/03/20 05:58:07;;;;;;;37.00;19.48;;;;;;;;;;2040225;29;20103;-88
2023/03/20 05:59:07;;;;;;;;;;;;;;;;;;2046678;29;20027;-87
2023/03/20 06:00:10;;;;;;;31.10;19.30;;;;;;;;;;2046170;29;20133;-87
2023/03/20 06:01:15;;;;;;;28.55;17.48;;;;;;;;;;2054967;28;20049;-87
2023/03/20 06:02:16;;;;;;;33.58;19.58;;;;;;;;;;2046237;29;20031;-87
2023/03/20 06:03:16;;;;;;;;;;;;;;;;;;2046826;29;20126;-87
2023/03/20 06:04:16;;;;;;;34.47;19.13;;;;;;;;;;2055180;28;20004;-87
2023/03/20 06:05:17;;;;;;;;;;;;;;;;;;2055510;28;20042;-86
2023/03/20 06:06:17;;;;;;;33.40;18.70;;;;;;;;;;2045985;29;19925;-86
2023/03/20 06:07:17;;;;;;;;;;;;;;;;;;2038908;29;20460;-87
2023/03/20 06:08:18;;;;;;;28.58;17.65;;;;;;;;;;2046049;29;19993;-88
2023/03/20 06:09:18;;;;;;;27.65;17.92;;;;;;;;;;2045988;29;20034;-84
2023/03/20 06:10:19;;;;;;;;;;;;;;;;;;2046636;29;20023;-86
2023/03/20 06:11:21;;;;;;;27.73;16.73;;;;;;;;;;2045893;29;19930;-87
2023/03/20 06:12:21;;;;;;;;;;;;;;;;;;2046650;29;20057;-87
2023/03/20 06:13:21;;;;;;;29.73;17.20;;;;;;;;;;2054863;28;19945;-87
2023/03/20 06:14:22;;;;;;;26.63;16.65;;;;;;;;;;2055075;28;20027;-87
2023/03/20 06:15:22;;;;;;;22.35;15.52;;;;;;;;;;2046232;29;20435;-88
2023/03/20 06:16:28;;;;;;;;;;;;;;;;;;2046318;29;20075;-87
2023/03/20 06:17:29;;;;;;;25.05;15.20;;;;;;;;;;2045825;29;19961;-88
2023/03/20 06:18:29;;;;;;;;;;;;;;;;;;2046502;29;20030;-88
2023/03/20 06:19:33;;;;;;;21.10;13.50;;;;;;;;;;2038178;29;20009;-88
2023/03/20 06:20:33;;;;;;;18.35;13.10;;;;;;;;;;2046562;28;20023;-88
2023/03/20 06:21:33;;;;;;;;;;;;;;;;;;2055447;28;20375;-88
2023/03/20 06:22:34;;;;;;;22.63;14.95;;;;;;;;;;2047597;29;19926;-88
2023/03/20 06:23:35;;;;;;;;;;;;;;;;;;2042054;29;20462;-88
2023/03/20 06:24:37;;;;;;;23.17;15.30;;;;;;;;;;2039888;29;20385;-88
2023/03/20 06:25:37;;;;;;;18.83;13.35;;;;;;;;;;2038094;29;20035;-88
2023/03/20 06:26:37;;;;;;;;;;;;;;;;;;2037903;29;20059;-88
2023/03/20 06:27:38;;;;;;;16.77;11.40;;;;;;;;;;2045981;29;19910;-88